sensor_id;sensor_type;location;lat;lon;timestamp;temperature;humidity
5041;DHT22;2539;52.568;13.364;2023-02-08T00:00:42;-2.40;99.90
5041;DHT22;2539;52.568;13.364;2023-02-08T00:03:08;-2.40;99.90
5041;DHT22;2539;52.568;13.364;2023-02-08T00:05:35;-2.40;99.90
5041;DHT22;2539;52.568;13.364;2023-02-08T00:08:01;-2.50;99.90
5041;DHT22;2539;52.568;13.364;2023-02-08T00:10:27;-2.40;99.90
5041;DHT22;2539;52.568;13.364;2023-02-08T00:12:53;-1.20;99.90
5041;DHT22;2539;52.568;13.364;2023-02-08T00:15:20;-2.60;99.90
5041;DHT22;2539;52.568;13.364;2023-02-08T00:17:47;-2.60;99.90
5041;DHT22;2539;52.568;13.364;2023-02-08T00:20:13;-2.60;99.90
5041;DHT22;2539;52.568;13.364;2023-02-08T00:22:40;-2.60;99.90
5041;DHT22;2539;52.568;13.364;2023-02-08T00:27:39;-2.60;99.90
5041;DHT22;2539;52.568;13.364;2023-02-08T00:30:05;-2.60;99.90
5041;DHT22;2539;52.568;13.364;2023-02-08T00:32:32;-2.60;99.90
5041;DHT22;2539;52.568;13.364;2023-02-08T00:34:59;-2.70;99.90
5041;DHT22;2539;52.568;13.364;2023-02-08T00:37:25;-2.60;99.90
5041;DHT22;2539;52.568;13.364;2023-02-08T00:39:51;-2.70;99.90
5041;DHT22;2539;52.568;13.364;2023-02-08T00:42:18;-2.70;99.90
5041;DHT22;2539;52.568;13.364;2023-02-08T00:44:44;-2.70;99.90
5041;DHT22;2539;52.568;13.364;2023-02-08T00:47:10;-2.50;99.90
5041;DHT22;2539;52.568;13.364;2023-02-08T00:49:36;-2.70;99.90
5041;DHT22;2539;52.568;13.364;2023-02-08T00:52:03;-2.70;99.90
5041;DHT22;2539;52.568;13.364;2023-02-08T00:54:28;-2.70;99.90
5041;DHT22;2539;52.568;13.364;2023-02-08T00:56:54;-2.80;99.90
5041;DHT22;2539;52.568;13.364;2023-02-08T00:59:20;-2.80;99.90
5041;DHT22;2539;52.568;13.364;2023-02-08T01:01:56;-2.70;99.90
5041;DHT22;2539;52.568;13.364;2023-02-08T01:04:22;-2.80;99.90
5041;DHT22;2539;52.568;13.364;2023-02-08T01:06:49;-2.80;99.90
5041;DHT22;2539;52.568;13.364;2023-02-08T01:09:15;-2.80;99.90
5041;DHT22;2539;52.568;13.364;2023-02-08T01:11:41;-2.80;99.90
5041;DHT22;2539;52.568;13.364;2023-02-08T01:14:08;-2.90;99.90
5041;DHT22;2539;52.568;13.364;2023-02-08T01:16:35;-2.80;99.90
5041;DHT22;2539;52.568;13.364;2023-02-08T01:19:03;-2.80;99.90
5041;DHT22;2539;52.568;13.364;2023-02-08T01:21:32;-2.80;99.90
5041;DHT22;2539;52.568;13.364;2023-02-08T01:24:04;-2.80;99.90
5041;DHT22;2539;52.568;13.364;2023-02-08T01:26:31;-2.80;99.90
5041;DHT22;2539;52.568;13.364;2023-02-08T01:28:58;-2.80;99.90
5041;DHT22;2539;52.568;13.364;2023-02-08T01:31:27;-2.90;99.90
5041;DHT22;2539;52.568;13.364;2023-02-08T01:33:55;-2.80;99.90
5041;DHT22;2539;52.568;13.364;2023-02-08T01:36:22;-2.90;99.90
5041;DHT22;2539;52.568;13.364;2023-02-08T01:38:49;-2.90;99.90
5041;DHT22;2539;52.568;13.364;2023-02-08T01:41:20;-2.90;99.90
5041;DHT22;2539;52.568;13.364;2023-02-08T01:46:46;-3.00;99.90
5041;DHT22;2539;52.568;13.364;2023-02-08T01:49:28;-3.00;99.90
5041;DHT22;2539;52.568;13.364;2023-02-08T01:52:02;-3.00;99.90
5041;DHT22;2539;52.568;13.364;2023-02-08T01:54:34;-3.00;99.90
5041;DHT22;2539;52.568;13.364;2023-02-08T01:57:01;-3.00;99.90
5041;DHT22;2539;52.568;13.364;2023-02-08T01:59:40;-3.00;99.90
5041;DHT22;2539;52.568;13.364;2023-02-08T02:02:11;-3.00;99.90
5041;DHT22;2539;52.568;13.364;2023-02-08T02:04:39;-3.00;99.90
5041;DHT22;2539;52.568;13.364;2023-02-08T02:07:06;-3.00;99.90
5041;DHT22;2539;52.568;13.364;2023-02-08T02:09:43;-3.00;99.90
5041;DHT22;2539;52.568;13.364;2023-02-08T02:12:10;-2.90;99.90
5041;DHT22;2539;52.568;13.364;2023-02-08T02:14:38;-2.90;99.90
5041;DHT22;2539;52.568;13.364;2023-02-08T02:17:05;-3.00;99.90
5041;DHT22;2539;52.568;13.364;2023-02-08T02:20:01;-2.90;99.90
5041;DHT22;2539;52.568;13.364;2023-02-08T02:22:48;-2.90;99.90
5041;DHT22;2539;52.568;13.364;2023-02-08T02:25:59;-2.90;99.90
5041;DHT22;2539;52.568;13.364;2023-02-08T02:37:10;-3.00;99.90
5041;DHT22;2539;52.568;13.364;2023-02-08T02:39:51;-3.00;99.90
5041;DHT22;2539;52.568;13.364;2023-02-08T02:46:01;-3.10;99.90
5041;DHT22;2539;52.568;13.364;2023-02-08T02:48:58;-3.10;99.90
5041;DHT22;2539;52.568;13.364;2023-02-08T02:51:45;-3.20;99.90
5041;DHT22;2539;52.568;13.364;2023-02-08T02:56:46;-3.30;99.90
5041;DHT22;2539;52.568;13.364;2023-02-08T02:59:14;-3.40;99.90
5041;DHT22;2539;52.568;13.364;2023-02-08T03:01:43;-3.40;99.90
5041;DHT22;2539;52.568;13.364;2023-02-08T03:04:45;-3.40;99.90
5041;DHT22;2539;52.568;13.364;2023-02-08T03:07:15;-3.40;99.90
5041;DHT22;2539;52.568;13.364;2023-02-08T03:13:03;-3.40;99.90
5041;DHT22;2539;52.568;13.364;2023-02-08T03:15:49;-3.30;99.90
5041;DHT22;2539;52.568;13.364;2023-02-08T03:18:56;-3.30;99.90
5041;DHT22;2539;52.568;13.364;2023-02-08T03:21:54;-3.30;99.90
5041;DHT22;2539;52.568;13.364;2023-02-08T03:24:48;-3.30;99.90
5041;DHT22;2539;52.568;13.364;2023-02-08T03:27:26;-3.40;99.90
5041;DHT22;2539;52.568;13.364;2023-02-08T03:30:22;-3.40;99.90
5041;DHT22;2539;52.568;13.364;2023-02-08T03:33:09;-3.40;99.90
5041;DHT22;2539;52.568;13.364;2023-02-08T03:35:38;-3.40;99.90
5041;DHT22;2539;52.568;13.364;2023-02-08T03:38:10;-3.40;99.90
5041;DHT22;2539;52.568;13.364;2023-02-08T03:40:41;-3.40;99.90
5041;DHT22;2539;52.568;13.364;2023-02-08T03:43:20;-3.40;99.90
5041;DHT22;2539;52.568;13.364;2023-02-08T03:45:55;-3.30;99.90
5041;DHT22;2539;52.568;13.364;2023-02-08T03:48:23;-3.10;99.90
5041;DHT22;2539;52.568;13.364;2023-02-08T03:50:52;-3.10;99.90
5041;DHT22;2539;52.568;13.364;2023-02-08T03:53:21;-3.00;99.90
5041;DHT22;2539;52.568;13.364;2023-02-08T03:55:51;-3.00;99.90
5041;DHT22;2539;52.568;13.364;2023-02-08T03:58:39;-2.90;99.90
5041;DHT22;2539;52.568;13.364;2023-02-08T04:01:14;-2.90;99.90
5041;DHT22;2539;52.568;13.364;2023-02-08T04:03:42;-2.90;99.90
5041;DHT22;2539;52.568;13.364;2023-02-08T04:06:09;-2.90;99.90
5041;DHT22;2539;52.568;13.364;2023-02-08T04:08:35;-2.90;99.90
5041;DHT22;2539;52.568;13.364;2023-02-08T04:11:01;-2.90;99.90
5041;DHT22;2539;52.568;13.364;2023-02-08T04:13:28;-2.90;99.90
5041;DHT22;2539;52.568;13.364;2023-02-08T04:15:54;-2.90;99.90
5041;DHT22;2539;52.568;13.364;2023-02-08T04:18:20;-2.80;99.90
5041;DHT22;2539;52.568;13.364;2023-02-08T04:20:46;-2.80;99.90
5041;DHT22;2539;52.568;13.364;2023-02-08T04:23:13;-2.80;99.90
5041;DHT22;2539;52.568;13.364;2023-02-08T04:25:39;-2.80;99.90
5041;DHT22;2539;52.568;13.364;2023-02-08T04:28:05;-2.80;99.90
5041;DHT22;2539;52.568;13.364;2023-02-08T04:30:32;-2.80;99.90
5041;DHT22;2539;52.568;13.364;2023-02-08T04:32:58;-2.80;99.90
5041;DHT22;2539;52.568;13.364;2023-02-08T04:35:25;-2.80;99.90
5041;DHT22;2539;52.568;13.364;2023-02-08T04:37:50;-2.90;99.90
5041;DHT22;2539;52.568;13.364;2023-02-08T04:40:16;-2.40;99.90
5041;DHT22;2539;52.568;13.364;2023-02-08T04:42:42;-2.90;99.90
5041;DHT22;2539;52.568;13.364;2023-02-08T04:45:08;-2.90;99.90
5041;DHT22;2539;52.568;13.364;2023-02-08T04:47:35;-2.90;99.90
5041;DHT22;2539;52.568;13.364;2023-02-08T04:50:03;-2.90;99.90
5041;DHT22;2539;52.568;13.364;2023-02-08T04:52:30;-2.90;99.90
5041;DHT22;2539;52.568;13.364;2023-02-08T04:54:56;-2.90;99.90
5041;DHT22;2539;52.568;13.364;2023-02-08T04:57:23;-2.90;99.90
5041;DHT22;2539;52.568;13.364;2023-02-08T04:59:48;-2.90;99.90
5041;DHT22;2539;52.568;13.364;2023-02-08T05:02:14;-2.90;99.90
5041;DHT22;2539;52.568;13.364;2023-02-08T05:04:39;-2.90;99.90
5041;DHT22;2539;52.568;13.364;2023-02-08T05:07:05;-2.90;99.90
5041;DHT22;2539;52.568;13.364;2023-02-08T05:09:31;-3.00;99.90
5041;DHT22;2539;52.568;13.364;2023-02-08T05:11:58;-1.70;99.90
5041;DHT22;2539;52.568;13.364;2023-02-08T05:14:24;-3.00;99.90
5041;DHT22;2539;52.568;13.364;2023-02-08T05:16:51;-3.10;99.90
5041;DHT22;2539;52.568;13.364;2023-02-08T05:19:17;-3.10;99.90
5041;DHT22;2539;52.568;13.364;2023-02-08T05:21:43;-3.10;99.90
5041;DHT22;2539;52.568;13.364;2023-02-08T05:24:10;-3.10;99.90
5041;DHT22;2539;52.568;13.364;2023-02-08T05:26:38;-3.00;99.90
5041;DHT22;2539;52.568;13.364;2023-02-08T05:29:05;-3.10;99.90
5041;DHT22;2539;52.568;13.364;2023-02-08T05:31:31;-3.00;99.90
5041;DHT22;2539;52.568;13.364;2023-02-08T05:33:58;-3.10;99.90
5041;DHT22;2539;52.568;13.364;2023-02-08T05:36:24;-3.10;99.90
5041;DHT22;2539;52.568;13.364;2023-02-08T05:38:51;-3.10;99.90
5041;DHT22;2539;52.568;13.364;2023-02-08T05:41:18;-3.30;99.90
5041;DHT22;2539;52.568;13.364;2023-02-08T05:43:44;-3.10;99.90
5041;DHT22;2539;52.568;13.364;2023-02-08T05:46:10;-3.10;99.90
5041;DHT22;2539;52.568;13.364;2023-02-08T05:48:37;-3.20;99.90
5041;DHT22;2539;52.568;13.364;2023-02-08T05:51:06;-3.20;99.90
5041;DHT22;2539;52.568;13.364;2023-02-08T05:53:32;-3.20;99.90
5041;DHT22;2539;52.568;13.364;2023-02-08T05:55:59;-3.20;99.90
5041;DHT22;2539;52.568;13.364;2023-02-08T05:58:25;-3.20;99.90
5041;DHT22;2539;52.568;13.364;2023-02-08T06:00:52;-3.20;99.90
5041;DHT22;2539;52.568;13.364;2023-02-08T06:03:18;-3.20;99.90
5041;DHT22;2539;52.568;13.364;2023-02-08T06:05:45;-3.30;99.90
5041;DHT22;2539;52.568;13.364;2023-02-08T06:08:11;-3.20;99.90
5041;DHT22;2539;52.568;13.364;2023-02-08T06:10:38;-3.30;99.90
5041;DHT22;2539;52.568;13.364;2023-02-08T06:13:05;-3.30;99.90
5041;DHT22;2539;52.568;13.364;2023-02-08T06:15:31;-3.30;99.90
5041;DHT22;2539;52.568;13.364;2023-02-08T06:17:57;-3.30;99.90
5041;DHT22;2539;52.568;13.364;2023-02-08T06:20:24;-3.30;99.90
5041;DHT22;2539;52.568;13.364;2023-02-08T06:22:50;-3.20;99.90
5041;DHT22;2539;52.568;13.364;2023-02-08T06:25:17;-3.10;99.90
5041;DHT22;2539;52.568;13.364;2023-02-08T06:30:12;-2.90;99.90
5041;DHT22;2539;52.568;13.364;2023-02-08T06:32:38;-2.90;99.90
5041;DHT22;2539;52.568;13.364;2023-02-08T06:35:05;-2.90;99.90
5041;DHT22;2539;52.568;13.364;2023-02-08T06:37:31;-2.80;99.90
5041;DHT22;2539;52.568;13.364;2023-02-08T06:39:57;-2.70;99.90
5041;DHT22;2539;52.568;13.364;2023-02-08T06:42:25;-2.70;99.90
5041;DHT22;2539;52.568;13.364;2023-02-08T06:44:52;-2.70;99.90
5041;DHT22;2539;52.568;13.364;2023-02-08T06:47:21;-2.60;99.90
5041;DHT22;2539;52.568;13.364;2023-02-08T06:49:48;-2.60;99.90
5041;DHT22;2539;52.568;13.364;2023-02-08T06:52:14;-2.50;99.90
5041;DHT22;2539;52.568;13.364;2023-02-08T06:54:40;-1.80;99.90
5041;DHT22;2539;52.568;13.364;2023-02-08T06:57:06;-2.50;99.90
5041;DHT22;2539;52.568;13.364;2023-02-08T06:59:33;-2.50;99.90
5041;DHT22;2539;52.568;13.364;2023-02-08T07:02:00;-2.50;99.90
5041;DHT22;2539;52.568;13.364;2023-02-08T07:04:26;-2.50;99.90
5041;DHT22;2539;52.568;13.364;2023-02-08T07:06:52;-2.50;99.90
5041;DHT22;2539;52.568;13.364;2023-02-08T07:09:18;-2.50;99.90
5041;DHT22;2539;52.568;13.364;2023-02-08T07:11:45;-2.70;99.90
5041;DHT22;2539;52.568;13.364;2023-02-08T07:14:13;-1.70;99.90
5041;DHT22;2539;52.568;13.364;2023-02-08T07:16:39;-2.30;99.90
5041;DHT22;2539;52.568;13.364;2023-02-08T07:19:06;-2.30;99.90
5041;DHT22;2539;52.568;13.364;2023-02-08T07:21:31;-2.30;99.90
5041;DHT22;2539;52.568;13.364;2023-02-08T07:23:57;-2.30;99.90
5041;DHT22;2539;52.568;13.364;2023-02-08T07:26:23;-2.20;99.90
5041;DHT22;2539;52.568;13.364;2023-02-08T07:28:48;-2.20;99.90
5041;DHT22;2539;52.568;13.364;2023-02-08T07:31:16;-2.20;99.90
5041;DHT22;2539;52.568;13.364;2023-02-08T07:33:43;-2.20;99.90
5041;DHT22;2539;52.568;13.364;2023-02-08T07:36:10;-2.20;99.90
5041;DHT22;2539;52.568;13.364;2023-02-08T07:38:37;-2.10;99.90
5041;DHT22;2539;52.568;13.364;2023-02-08T07:41:06;-2.10;99.90
5041;DHT22;2539;52.568;13.364;2023-02-08T07:43:34;-1.40;99.90
5041;DHT22;2539;52.568;13.364;2023-02-08T07:46:08;-2.00;99.90
5041;DHT22;2539;52.568;13.364;2023-02-08T07:48:34;-2.00;99.90
5041;DHT22;2539;52.568;13.364;2023-02-08T07:51:01;-1.90;99.90
5041;DHT22;2539;52.568;13.364;2023-02-08T07:53:29;-1.90;99.90
5041;DHT22;2539;52.568;13.364;2023-02-08T07:55:55;-1.90;99.90
5041;DHT22;2539;52.568;13.364;2023-02-08T07:58:22;-1.90;99.90
5041;DHT22;2539;52.568;13.364;2023-02-08T08:00:48;-1.50;99.90
5041;DHT22;2539;52.568;13.364;2023-02-08T08:03:15;-1.50;99.90
5041;DHT22;2539;52.568;13.364;2023-02-08T08:05:41;-1.20;99.90
5041;DHT22;2539;52.568;13.364;2023-02-08T08:08:09;-0.70;99.90
5041;DHT22;2539;52.568;13.364;2023-02-08T08:10:36;-0.60;99.90
5041;DHT22;2539;52.568;13.364;2023-02-08T08:13:03;-0.30;99.90
5041;DHT22;2539;52.568;13.364;2023-02-08T08:15:30;-0.40;99.90
5041;DHT22;2539;52.568;13.364;2023-02-08T08:17:57;-0.70;99.90
5041;DHT22;2539;52.568;13.364;2023-02-08T08:20:23;-0.80;99.90
5041;DHT22;2539;52.568;13.364;2023-02-08T08:22:50;-0.80;99.90
5041;DHT22;2539;52.568;13.364;2023-02-08T08:25:16;-0.80;99.90
5041;DHT22;2539;52.568;13.364;2023-02-08T08:27:42;-0.80;99.90
5041;DHT22;2539;52.568;13.364;2023-02-08T08:30:11;-0.80;99.90
5041;DHT22;2539;52.568;13.364;2023-02-08T08:32:38;-0.80;99.90
5041;DHT22;2539;52.568;13.364;2023-02-08T08:35:05;-0.80;99.90
5041;DHT22;2539;52.568;13.364;2023-02-08T08:37:33;-0.70;99.90
5041;DHT22;2539;52.568;13.364;2023-02-08T08:40:00;-0.70;99.90
5041;DHT22;2539;52.568;13.364;2023-02-08T08:42:27;-0.10;99.90
5041;DHT22;2539;52.568;13.364;2023-02-08T08:44:54;-0.40;99.90
5041;DHT22;2539;52.568;13.364;2023-02-08T08:47:20;-1.00;99.90
5041;DHT22;2539;52.568;13.364;2023-02-08T08:49:47;-0.30;99.90
5041;DHT22;2539;52.568;13.364;2023-02-08T08:52:13;0.10;99.90
5041;DHT22;2539;52.568;13.364;2023-02-08T08:54:40;-0.10;99.90
5041;DHT22;2539;52.568;13.364;2023-02-08T08:57:06;-0.30;99.90
5041;DHT22;2539;52.568;13.364;2023-02-08T08:59:33;-0.30;99.90
5041;DHT22;2539;52.568;13.364;2023-02-08T09:01:59;-0.30;99.90
5041;DHT22;2539;52.568;13.364;2023-02-08T09:04:25;-0.40;99.90
5041;DHT22;2539;52.568;13.364;2023-02-08T09:06:52;-0.80;99.90
5041;DHT22;2539;52.568;13.364;2023-02-08T09:09:20;-0.40;99.90
5041;DHT22;2539;52.568;13.364;2023-02-08T09:11:47;-0.70;99.90
5041;DHT22;2539;52.568;13.364;2023-02-08T09:14:14;-0.90;99.90
5041;DHT22;2539;52.568;13.364;2023-02-08T09:16:41;-0.20;99.90
5041;DHT22;2539;52.568;13.364;2023-02-08T09:19:09;-0.10;99.90
5041;DHT22;2539;52.568;13.364;2023-02-08T09:21:36;-0.10;99.90
5041;DHT22;2539;52.568;13.364;2023-02-08T09:24:02;-0.10;99.90
5041;DHT22;2539;52.568;13.364;2023-02-08T09:26:29;-0.10;99.90
5041;DHT22;2539;52.568;13.364;2023-02-08T09:28:55;-0.10;99.90
5041;DHT22;2539;52.568;13.364;2023-02-08T09:31:25;-0.10;99.90
5041;DHT22;2539;52.568;13.364;2023-02-08T09:33:54;0.00;99.90
5041;DHT22;2539;52.568;13.364;2023-02-08T09:36:21;0.00;99.90
5041;DHT22;2539;52.568;13.364;2023-02-08T09:38:48;0.20;99.90
5041;DHT22;2539;52.568;13.364;2023-02-08T09:41:37;0.40;99.90
5041;DHT22;2539;52.568;13.364;2023-02-08T09:44:21;0.40;99.90
5041;DHT22;2539;52.568;13.364;2023-02-08T09:47:08;0.40;99.90
5041;DHT22;2539;52.568;13.364;2023-02-08T09:49:39;0.60;99.90
5041;DHT22;2539;52.568;13.364;2023-02-08T09:52:17;0.70;99.90
5041;DHT22;2539;52.568;13.364;2023-02-08T09:54:49;0.60;99.90
5041;DHT22;2539;52.568;13.364;2023-02-08T09:57:21;0.70;99.90
5041;DHT22;2539;52.568;13.364;2023-02-08T09:59:54;0.60;99.90
5041;DHT22;2539;52.568;13.364;2023-02-08T10:02:29;0.60;99.90
5041;DHT22;2539;52.568;13.364;2023-02-08T10:05:05;0.50;99.90
5041;DHT22;2539;52.568;13.364;2023-02-08T10:07:32;0.60;99.90
5041;DHT22;2539;52.568;13.364;2023-02-08T10:10:02;0.60;99.90
5041;DHT22;2539;52.568;13.364;2023-02-08T10:12:50;0.60;99.90
5041;DHT22;2539;52.568;13.364;2023-02-08T10:18:09;0.70;99.90
5041;DHT22;2539;52.568;13.364;2023-02-08T10:21:02;0.70;99.90
5041;DHT22;2539;52.568;13.364;2023-02-08T10:23:52;0.70;99.90
5041;DHT22;2539;52.568;13.364;2023-02-08T10:29:35;0.70;99.90
5041;DHT22;2539;52.568;13.364;2023-02-08T10:35:01;0.80;99.90
5041;DHT22;2539;52.568;13.364;2023-02-08T10:37:34;0.90;99.90
5041;DHT22;2539;52.568;13.364;2023-02-08T10:40:34;1.00;99.90
5041;DHT22;2539;52.568;13.364;2023-02-08T10:43:18;1.10;99.90
5041;DHT22;2539;52.568;13.364;2023-02-08T10:45:51;1.10;99.90
5041;DHT22;2539;52.568;13.364;2023-02-08T10:48:41;1.10;99.90
5041;DHT22;2539;52.568;13.364;2023-02-08T10:51:14;1.10;99.90
5041;DHT22;2539;52.568;13.364;2023-02-08T10:53:41;1.10;99.90
5041;DHT22;2539;52.568;13.364;2023-02-08T10:58:56;1.30;99.90
5041;DHT22;2539;52.568;13.364;2023-02-08T11:01:24;1.40;99.90
5041;DHT22;2539;52.568;13.364;2023-02-08T11:04:20;1.50;99.90
5041;DHT22;2539;52.568;13.364;2023-02-08T11:06:47;1.40;99.90
5041;DHT22;2539;52.568;13.364;2023-02-08T11:09:34;1.30;99.90
5041;DHT22;2539;52.568;13.364;2023-02-08T11:12:01;1.30;99.90
5041;DHT22;2539;52.568;13.364;2023-02-08T11:14:49;1.30;99.90
5041;DHT22;2539;52.568;13.364;2023-02-08T11:17:25;1.30;99.90
5041;DHT22;2539;52.568;13.364;2023-02-08T11:19:52;1.30;99.90
5041;DHT22;2539;52.568;13.364;2023-02-08T11:22:21;1.40;99.90
5041;DHT22;2539;52.568;13.364;2023-02-08T11:24:57;1.50;99.90
5041;DHT22;2539;52.568;13.364;2023-02-08T11:27:39;1.50;99.90
5041;DHT22;2539;52.568;13.364;2023-02-08T11:32:44;1.50;99.90
5041;DHT22;2539;52.568;13.364;2023-02-08T11:37:49;1.70;99.90
5041;DHT22;2539;52.568;13.364;2023-02-08T11:40:31;1.80;99.90
5041;DHT22;2539;52.568;13.364;2023-02-08T11:42:59;1.80;99.90
5041;DHT22;2539;52.568;13.364;2023-02-08T11:45:31;1.80;99.90
5041;DHT22;2539;52.568;13.364;2023-02-08T11:47:58;1.80;99.90
5041;DHT22;2539;52.568;13.364;2023-02-08T11:50:31;1.80;99.90
5041;DHT22;2539;52.568;13.364;2023-02-08T11:53:00;1.80;99.90
5041;DHT22;2539;52.568;13.364;2023-02-08T11:55:29;1.90;99.90
5041;DHT22;2539;52.568;13.364;2023-02-08T11:58:01;1.80;99.90
5041;DHT22;2539;52.568;13.364;2023-02-08T12:00:31;1.80;99.90
5041;DHT22;2539;52.568;13.364;2023-02-08T12:03:04;1.90;99.90
5041;DHT22;2539;52.568;13.364;2023-02-08T12:05:49;1.90;99.90
5041;DHT22;2539;52.568;13.364;2023-02-08T12:08:38;1.90;99.90
5041;DHT22;2539;52.568;13.364;2023-02-08T12:14:01;1.80;99.90
5041;DHT22;2539;52.568;13.364;2023-02-08T12:16:49;1.90;99.90
5041;DHT22;2539;52.568;13.364;2023-02-08T12:19:34;1.90;99.90
5041;DHT22;2539;52.568;13.364;2023-02-08T12:22:05;1.90;99.90
5041;DHT22;2539;52.568;13.364;2023-02-08T12:24:49;0.10;99.90
5041;DHT22;2539;52.568;13.364;2023-02-08T12:30:19;1.90;99.90
5041;DHT22;2539;52.568;13.364;2023-02-08T12:33:21;1.90;99.90
5041;DHT22;2539;52.568;13.364;2023-02-08T12:39:05;2.00;99.90
5041;DHT22;2539;52.568;13.364;2023-02-08T12:41:56;2.00;99.90
5041;DHT22;2539;52.568;13.364;2023-02-08T12:44:43;2.10;99.90
5041;DHT22;2539;52.568;13.364;2023-02-08T12:50:27;2.00;99.90
5041;DHT22;2539;52.568;13.364;2023-02-08T12:53:00;2.00;99.90
5041;DHT22;2539;52.568;13.364;2023-02-08T12:55:34;2.10;99.90
5041;DHT22;2539;52.568;13.364;2023-02-08T13:00:52;2.10;99.90
5041;DHT22;2539;52.568;13.364;2023-02-08T13:03:36;2.10;99.90
5041;DHT22;2539;52.568;13.364;2023-02-08T13:06:18;2.10;99.90
5041;DHT22;2539;52.568;13.364;2023-02-08T13:08:56;2.10;99.90
5041;DHT22;2539;52.568;13.364;2023-02-08T13:11:35;2.10;99.90
5041;DHT22;2539;52.568;13.364;2023-02-08T13:14:31;2.10;99.90
5041;DHT22;2539;52.568;13.364;2023-02-08T13:17:13;2.10;99.90
5041;DHT22;2539;52.568;13.364;2023-02-08T13:22:11;2.10;99.90
5041;DHT22;2539;52.568;13.364;2023-02-08T13:24:41;0.20;99.90
5041;DHT22;2539;52.568;13.364;2023-02-08T13:27:19;2.10;99.90
5041;DHT22;2539;52.568;13.364;2023-02-08T13:29:48;2.10;99.90
5041;DHT22;2539;52.568;13.364;2023-02-08T13:34:57;2.20;99.90
5041;DHT22;2539;52.568;13.364;2023-02-08T13:37:28;2.20;99.90
5041;DHT22;2539;52.568;13.364;2023-02-08T13:40:03;2.20;99.90
5041;DHT22;2539;52.568;13.364;2023-02-08T13:42:39;2.20;99.90
5041;DHT22;2539;52.568;13.364;2023-02-08T13:45:08;2.30;99.90
5041;DHT22;2539;52.568;13.364;2023-02-08T13:47:43;2.20;99.90
5041;DHT22;2539;52.568;13.364;2023-02-08T13:50:48;2.30;99.90
5041;DHT22;2539;52.568;13.364;2023-02-08T13:53:16;2.30;99.90
5041;DHT22;2539;52.568;13.364;2023-02-08T13:55:53;2.20;99.90
5041;DHT22;2539;52.568;13.364;2023-02-08T13:58:33;2.20;99.90
5041;DHT22;2539;52.568;13.364;2023-02-08T14:03:34;2.10;99.90
5041;DHT22;2539;52.568;13.364;2023-02-08T14:06:20;2.10;99.90
5041;DHT22;2539;52.568;13.364;2023-02-08T14:11:45;2.10;99.90
5041;DHT22;2539;52.568;13.364;2023-02-08T14:14:27;2.10;99.90
5041;DHT22;2539;52.568;13.364;2023-02-08T14:19:32;2.10;99.90
5041;DHT22;2539;52.568;13.364;2023-02-08T14:22:04;2.10;99.90
5041;DHT22;2539;52.568;13.364;2023-02-08T14:24:40;2.10;99.90
5041;DHT22;2539;52.568;13.364;2023-02-08T14:27:24;2.10;99.90
5041;DHT22;2539;52.568;13.364;2023-02-08T14:30:07;2.10;99.90
5041;DHT22;2539;52.568;13.364;2023-02-08T14:32:39;2.00;99.90
5041;DHT22;2539;52.568;13.364;2023-02-08T14:35:15;2.00;99.90
5041;DHT22;2539;52.568;13.364;2023-02-08T14:37:47;2.00;99.90
5041;DHT22;2539;52.568;13.364;2023-02-08T14:42:55;2.10;99.90
5041;DHT22;2539;52.568;13.364;2023-02-08T14:48:16;1.90;99.90
5041;DHT22;2539;52.568;13.364;2023-02-08T14:53:26;1.80;99.90
5041;DHT22;2539;52.568;13.364;2023-02-08T14:58:36;1.70;99.90
5041;DHT22;2539;52.568;13.364;2023-02-08T15:01:18;1.70;99.90
5041;DHT22;2539;52.568;13.364;2023-02-08T15:03:47;1.60;99.90
5041;DHT22;2539;52.568;13.364;2023-02-08T15:08:51;1.50;99.90
5041;DHT22;2539;52.568;13.364;2023-02-08T15:11:21;1.40;99.90
5041;DHT22;2539;52.568;13.364;2023-02-08T15:13:50;1.50;99.90
5041;DHT22;2539;52.568;13.364;2023-02-08T15:16:18;1.50;99.90
5041;DHT22;2539;52.568;13.364;2023-02-08T15:18:45;1.40;99.90
5041;DHT22;2539;52.568;13.364;2023-02-08T15:21:16;1.50;99.90
5041;DHT22;2539;52.568;13.364;2023-02-08T15:23:57;1.30;99.90
5041;DHT22;2539;52.568;13.364;2023-02-08T15:26:24;1.30;99.90
5041;DHT22;2539;52.568;13.364;2023-02-08T15:28:51;1.30;99.90
5041;DHT22;2539;52.568;13.364;2023-02-08T15:31:21;1.20;99.90
5041;DHT22;2539;52.568;13.364;2023-02-08T15:33:48;1.20;99.90
5041;DHT22;2539;52.568;13.364;2023-02-08T15:38:54;1.10;99.90
5041;DHT22;2539;52.568;13.364;2023-02-08T15:41:27;1.10;99.90
5041;DHT22;2539;52.568;13.364;2023-02-08T15:46:43;0.90;99.90
5041;DHT22;2539;52.568;13.364;2023-02-08T15:49:14;0.80;99.90
5041;DHT22;2539;52.568;13.364;2023-02-08T15:51:43;0.80;99.90
5041;DHT22;2539;52.568;13.364;2023-02-08T15:54:17;0.80;99.90
5041;DHT22;2539;52.568;13.364;2023-02-08T15:57:02;0.90;99.90
5041;DHT22;2539;52.568;13.364;2023-02-08T15:59:32;0.70;99.90
5041;DHT22;2539;52.568;13.364;2023-02-08T16:02:22;0.70;99.90
5041;DHT22;2539;52.568;13.364;2023-02-08T16:04:48;0.60;99.90
5041;DHT22;2539;52.568;13.364;2023-02-08T16:07:37;0.60;99.90
5041;DHT22;2539;52.568;13.364;2023-02-08T16:10:05;0.60;99.90
5041;DHT22;2539;52.568;13.364;2023-02-08T16:12:33;0.50;99.90
5041;DHT22;2539;52.568;13.364;2023-02-08T16:14:59;0.50;99.90
5041;DHT22;2539;52.568;13.364;2023-02-08T16:17:37;0.50;99.90
5041;DHT22;2539;52.568;13.364;2023-02-08T16:20:21;0.50;99.90
5041;DHT22;2539;52.568;13.364;2023-02-08T16:22:56;0.50;99.90
5041;DHT22;2539;52.568;13.364;2023-02-08T16:25:36;0.40;99.90
5041;DHT22;2539;52.568;13.364;2023-02-08T16:28:23;0.30;99.90
5041;DHT22;2539;52.568;13.364;2023-02-08T16:30:50;0.30;99.90
5041;DHT22;2539;52.568;13.364;2023-02-08T16:33:17;0.40;99.90
5041;DHT22;2539;52.568;13.364;2023-02-08T16:35:44;0.20;99.90
5041;DHT22;2539;52.568;13.364;2023-02-08T16:38:20;0.30;99.90
5041;DHT22;2539;52.568;13.364;2023-02-08T16:40:51;0.30;99.90
5041;DHT22;2539;52.568;13.364;2023-02-08T16:43:29;0.30;99.90
5041;DHT22;2539;52.568;13.364;2023-02-08T16:48:38;0.30;99.90
5041;DHT22;2539;52.568;13.364;2023-02-08T16:51:09;0.20;99.90
5041;DHT22;2539;52.568;13.364;2023-02-08T16:53:35;0.20;99.90
5041;DHT22;2539;52.568;13.364;2023-02-08T16:56:01;0.20;99.90
5041;DHT22;2539;52.568;13.364;2023-02-08T16:58:26;0.20;99.90
5041;DHT22;2539;52.568;13.364;2023-02-08T17:00:53;0.20;99.90
5041;DHT22;2539;52.568;13.364;2023-02-08T17:03:19;0.10;99.90
5041;DHT22;2539;52.568;13.364;2023-02-08T17:05:46;0.10;99.90
5041;DHT22;2539;52.568;13.364;2023-02-08T17:08:18;0.10;99.90
5041;DHT22;2539;52.568;13.364;2023-02-08T17:10:46;0.10;99.90
5041;DHT22;2539;52.568;13.364;2023-02-08T17:13:17;0.10;99.90
5041;DHT22;2539;52.568;13.364;2023-02-08T17:15:45;0.00;99.90
5041;DHT22;2539;52.568;13.364;2023-02-08T17:18:12;0.00;99.90
5041;DHT22;2539;52.568;13.364;2023-02-08T17:20:39;0.00;99.90
5041;DHT22;2539;52.568;13.364;2023-02-08T17:23:05;0.10;99.90
5041;DHT22;2539;52.568;13.364;2023-02-08T17:25:33;0.10;99.90
5041;DHT22;2539;52.568;13.364;2023-02-08T17:28:03;0.00;99.90
5041;DHT22;2539;52.568;13.364;2023-02-08T17:30:31;0.00;99.90
5041;DHT22;2539;52.568;13.364;2023-02-08T17:32:57;0.10;99.90
5041;DHT22;2539;52.568;13.364;2023-02-08T17:35:25;0.00;99.90
5041;DHT22;2539;52.568;13.364;2023-02-08T17:37:54;0.10;99.90
5041;DHT22;2539;52.568;13.364;2023-02-08T17:40:26;0.10;99.90
5041;DHT22;2539;52.568;13.364;2023-02-08T17:42:54;0.00;99.90
5041;DHT22;2539;52.568;13.364;2023-02-08T17:45:21;0.00;99.90
5041;DHT22;2539;52.568;13.364;2023-02-08T17:47:47;-0.10;99.90
5041;DHT22;2539;52.568;13.364;2023-02-08T17:50:16;0.00;99.90